Aeroclub de GuadalajaraInformación meteorológica

Información de METAR

 

LEMD - Madrid / Barajas
Distancia desde la estación: SO 49km
Actualización: 21/10/2017 13:30
Parcialmente nuboso
Parcialmente nuboso
 Viento del SO
Viento: SO 9 km/h, Racha: 30 km/h
Temperatura: 21°C
Rocío: 15°C
Humedad: 69%
Barómetro: 1024 hPa
Nubes: Parcialmente nuboso
Visibilidad: 10 km
Detalle de Nubes: Parcialmente nuboso 457 m
Parcialmente nuboso 1829 m
2017/10/21 11:30 LEMD 211130Z 22005G16KT 9999 SCT015 SCT060 21/15 Q1024 NOSIG
LECV - Madrid / Colmenar Viejo
Distancia desde la estación: OSO 47km
Actualización: 21/10/2017 13:00
Muy nuboso
Muy nuboso
 Viento del SSE
Viento: SSE 7 km/h
Temperatura: 18°C
Rocío: 13°C
Humedad: 73%
Barómetro: 1025 hPa
Nubes: Muy nuboso
Visibilidad: 10 km
Detalle de Nubes: Poco nuboso 305 m
Muy nuboso 1219 m
2017/10/21 11:00 LECV 211100Z 16004KT 9999 FEW010 BKN040 18/13 Q1025
LETO - Madrid / Torrejon
Distancia desde la estación: SSO 45km
Actualización: 21/10/2017 13:00
Muy nuboso
Muy nuboso
 Viento del varies
Viento: varies 2 km/h
Temperatura: 19°C
Rocío: 16°C
Humedad: 83%
Barómetro: 1025 hPa
Nubes: Muy nuboso
Visibilidad: 10 km
Detalle de Nubes: Parcialmente nuboso 366 m
Muy nuboso 549 m
2017/10/21 11:00 LETO 211100Z VRB01KT 9999 SCT012 BKN018 19/16 Q1025 NOSIG
 
LEVS - Madrid / Cuatro vientos
Distancia desde la estación: SO 70km
Actualización: 21/10/2017 13:30
Parcialmente nuboso
Parcialmente nuboso
 Viento del SO
Viento: SO 13 km/h
Temperatura: 21°C
Rocío: 15°C
Humedad: 69%
Barómetro: 1025 hPa
Nubes: Parcialmente nuboso
Visibilidad: 10 km
Detalle de Nubes: Parcialmente nuboso 610 m
2017/10/21 11:30 LEVS 211130Z 22007KT 180V260 9999 SCT020 21/15 Q1025
LEGT - Madrid / Getafe
Distancia desde la estación: SSO 74km
Actualización: 21/10/2017 13:00
Muy nuboso
Muy nuboso
 Viento del SO
Viento: SO 11 km/h
Temperatura: 20°C
Rocío: 15°C
Humedad: 73%
Barómetro: 1024 hPa
Nubes: Muy nuboso
Visibilidad: 10 km
Detalle de Nubes: Poco nuboso 457 m
Parcialmente nuboso 762 m
Muy nuboso 1219 m
2017/10/21 11:00 LEGT 211100Z 23006KT 180V320 9999 FEW015 SCT025 BKN040 20/15 Q1024
LEBL - Barcelona / Aeropuerto
Distancia desde la estación: E 447km
Actualización: 21/10/2017 13:30
Despejado
Despejado
 Viento del SSO
Viento: SSO 17 km/h
Temperatura: 22°C
Rocío: 16°C
Humedad: 69%
Barómetro: 1021 hPa
Resumen: Despejado
Visibilidad: más de 10 km
2017/10/21 11:30 LEBL 211130Z 21009KT 170V240 CAVOK 22/16 Q1021 NOSIG
 
LEVC - Valencia /Aeropuerto
Distancia desde la estación: ESE 280km
Actualización: 21/10/2017 13:30
Poco nuboso
Poco nuboso
 Viento del varies
Viento: varies 6 km/h
Temperatura: 28°C
Rocío: 11°C
Humedad: 35%
Barómetro: 1021 hPa
Nubes: Poco nuboso
Visibilidad: 10 km
Detalle de Nubes: Poco nuboso 1067 m
2017/10/21 11:30 LEVC 211130Z VRB03KT 9999 FEW035 28/11 Q1021 NOSIG
LEZG - Zaragoza / Aeropuerto
Distancia desde la estación: ENE 206km
Actualización: 21/10/2017 13:30
Poco nuboso
Poco nuboso
 Viento del N
Viento: N 9 km/h
Temperatura: 22°C
Rocío: 14°C
Humedad: 61%
Barómetro: 1021 hPa
Nubes: Poco nuboso
Visibilidad: 10 km
Detalle de Nubes: Poco nuboso 1524 m
2017/10/21 11:30 LEZG 211130Z 01005KT 330V050 9999 FEW050 22/14 Q1021
LEGR - Granada / Aeropuerto
Distancia desde la estación: S 411km
Actualización: 21/10/2017 13:30
Poco nuboso
Poco nuboso
 Viento del calm
Viento: Calma
Temperatura: 21°C
Rocío: 14°C
Humedad: 64%
Barómetro: 1025 hPa
Nubes: Poco nuboso
Visibilidad: 10 km
Detalle de Nubes: Poco nuboso 762 m
2017/10/21 11:30 LEGR 211130Z 00000KT 9999 FEW025 21/14 Q1025